Time;durP1;ratioP1;P1;durP2;ratioP2;P2;SDS_P1;SDS_P2;PMS_P1;PMS_P2;Temp;Humidity;BMP_temperature;BMP_pressure;BME280_temperature;BME280_humidity;BME280_pressure;Samples;Min_cycle;Max_cycle;Signal;HPM_P1;HPM_P2
2023/01/22 00:01:32;;;;;;;11.10;7.80;;;2.40;99.90;;;;;;5092389;28;20384;-80
2023/01/22 00:03:58;;;;;;;11.32;8.55;;;2.40;99.90;;;;;;5092372;28;20367;-80
2023/01/22 00:06:25;;;;;;;12.75;8.70;;;2.30;99.90;;;;;;5092449;28;20364;-81
2023/01/22 00:08:51;;;;;;;13.55;8.70;;;2.40;99.90;;;;;;5091974;28;20476;-82
2023/01/22 00:11:18;;;;;;;12.80;9.73;;;2.50;99.90;;;;;;5092383;28;20414;-81
2023/01/22 00:13:46;;;;;;;12.70;9.70;;;2.40;99.90;;;;;;5091721;28;20376;-82
2023/01/22 00:16:26;;;;;;;13.77;9.93;;;2.40;99.90;;;;;;5092596;28;20368;-82
2023/01/22 00:18:52;;;;;;;15.25;9.55;;;2.20;99.90;;;;;;5091311;28;20430;-83
2023/01/22 00:21:18;;;;;;;12.60;9.48;;;2.40;99.90;;;;;;5089976;28;20380;-82
2023/01/22 00:23:46;;;;;;;12.65;9.60;;;2.20;99.90;;;;;;5091477;28;20412;-82
2023/01/22 00:26:16;;;;;;;12.88;9.35;;;2.30;99.90;;;;;;5091665;28;20379;-82
2023/01/22 00:28:44;;;;;;;12.27;9.40;;;2.40;99.90;;;;;;5091491;28;20387;-80
2023/01/22 00:31:11;;;;;;;11.13;8.60;;;2.40;99.90;;;;;;5091810;28;20430;-82
2023/01/22 00:33:38;;;;;;;10.73;8.18;;;2.30;99.90;;;;;;5090347;28;20365;-83
2023/01/22 00:36:06;;;;;;;10.93;7.80;;;2.30;99.90;;;;;;5089828;28;20376;-82
2023/01/22 00:38:32;;;;;;;9.73;7.63;;;2.30;99.90;;;;;;5091187;28;20467;-83
2023/01/22 00:41:02;;;;;;;11.27;7.90;;;2.20;99.90;;;;;;5089671;28;20997;-82
2023/01/22 00:43:29;;;;;;;10.52;7.82;;;2.30;99.90;;;;;;5097262;28;20472;-82
2023/01/22 00:45:55;;;;;;;9.77;7.38;;;2.20;99.90;;;;;;5091582;28;20510;-82
2023/01/22 00:48:21;;;;;;;9.13;7.32;;;2.30;99.90;;;;;;5090142;28;20376;-83
2023/01/22 00:50:47;;;;;;;8.70;7.30;;;2.30;99.90;;;;;;5101068;27;20450;-82
2023/01/22 00:53:13;;;;;;;10.33;7.00;;;2.20;99.90;;;;;;5111854;28;20371;-83
2023/01/22 00:55:39;;;;;;;10.60;7.20;;;2.20;99.90;;;;;;5107409;28;20397;-82
2023/01/22 00:58:05;;;;;;;8.77;6.78;;;2.20;99.90;;;;;;5088770;28;21014;-83
2023/01/22 01:00:31;;;;;;;12.52;8.45;;;2.20;99.90;;;;;;5101921;28;20534;-82
2023/01/22 01:05:41;;;;;;;9.02;7.18;;;2.10;99.90;;;;;;5091217;28;20372;-80
2023/01/22 01:08:07;;;;;;;10.93;7.70;;;2.10;99.90;;;;;;5100482;27;20386;-82
2023/01/22 01:10:33;;;;;;;9.73;6.97;;;2.20;99.90;;;;;;5104439;28;20371;-82
2023/01/22 01:13:02;;;;;;;10.03;6.93;;;2.20;99.90;;;;;;5108409;28;20374;-82
2023/01/22 01:15:30;;;;;;;10.55;6.93;;;2.10;99.90;;;;;;5110686;27;20402;-82
2023/01/22 01:17:55;;;;;;;8.85;6.75;;;2.20;99.90;;;;;;5100863;28;20411;-82
2023/01/22 01:20:21;;;;;;;8.60;6.60;;;2.10;99.90;;;;;;5106619;28;20384;-84
2023/01/22 01:22:47;;;;;;;10.67;6.77;;;2.20;99.90;;;;;;5090746;28;20368;-83
2023/01/22 01:25:12;;;;;;;7.87;6.40;;;2.10;99.90;;;;;;5089390;28;20369;-83
2023/01/22 01:27:38;;;;;;;10.75;7.03;;;2.20;99.90;;;;;;5099468;28;20382;-81
2023/01/22 01:30:04;;;;;;;7.93;6.45;;;2.10;99.90;;;;;;5110488;27;20390;-83
2023/01/22 01:32:30;;;;;;;8.15;6.13;;;2.10;99.90;;;;;;5110033;28;20744;-81
2023/01/22 01:34:56;;;;;;;7.75;6.05;;;2.20;99.90;;;;;;5110321;28;20875;-83
2023/01/22 01:37:22;;;;;;;8.10;6.27;;;2.20;99.90;;;;;;5107844;28;20383;-81
2023/01/22 01:39:51;;;;;;;7.27;6.10;;;1.90;99.90;;;;;;5110477;27;20435;-82
2023/01/22 01:42:28;;;;;;;7.25;6.20;;;2.00;99.90;;;;;;5109522;28;20367;-83
2023/01/22 01:45:19;;;;;;;7.03;6.15;;;2.10;99.90;;;;;;5110760;28;20453;-84
2023/01/22 01:47:47;;;;;;;8.15;6.25;;;2.00;99.90;;;;;;5108666;28;20740;-82
2023/01/22 01:50:14;;;;;;;7.72;6.50;;;2.00;99.90;;;;;;5109018;28;20386;-82
2023/01/22 01:52:39;;;;;;;6.15;5.55;;;2.00;99.90;;;;;;5109510;28;20473;-84
2023/01/22 01:55:06;;;;;;;8.07;6.35;;;2.00;99.90;;;;;;5110461;28;20900;-82
2023/01/22 01:57:34;;;;;;;8.15;6.22;;;2.00;99.90;;;;;;5109755;28;20418;-82
2023/01/22 02:00:04;;;;;;;7.05;6.32;;;2.00;99.90;;;;;;5110951;28;20745;-83
2023/01/22 02:02:29;;;;;;;7.77;6.17;;;1.90;99.90;;;;;;5105246;27;20820;-82
2023/01/22 02:04:55;;;;;;;8.37;6.43;;;1.90;99.90;;;;;;5111311;28;20390;-83
2023/01/22 02:07:21;;;;;;;8.35;6.35;;;1.80;99.90;;;;;;5108553;28;20372;-83
2023/01/22 02:09:47;;;;;;;9.23;6.53;;;1.80;99.90;;;;;;5109154;28;20470;-82
2023/01/22 02:12:13;;;;;;;7.90;6.75;;;1.80;99.90;;;;;;5108271;28;20366;-81
2023/01/22 02:14:42;;;;;;;7.90;6.50;;;1.70;99.90;;;;;;5110078;27;20436;-82
2023/01/22 02:17:14;;;;;;;8.65;6.68;;;1.70;99.90;;;;;;5110065;28;20374;-83
2023/01/22 02:19:43;;;;;;;7.95;6.60;;;1.70;99.90;;;;;;5110636;28;20378;-82
2023/01/22 02:22:30;;;;;;;8.23;6.90;;;1.80;99.90;;;;;;5102969;28;20397;-82
2023/01/22 02:24:56;;;;;;;10.05;7.72;;;1.60;99.90;;;;;;5093237;28;20381;-82
2023/01/22 02:27:24;;;;;;;9.87;8.03;;;1.60;99.90;;;;;;5092932;28;20372;-83
2023/01/22 02:29:54;;;;;;;9.02;8.10;;;1.40;99.90;;;;;;5093753;28;20375;-82
2023/01/22 02:32:29;;;;;;;10.05;8.60;;;1.40;99.90;;;;;;5111256;28;20401;-83
2023/01/22 02:39:20;;;;;;;;;;;;;;;;;;;;;
2023/01/22 03:02:26;;;;;;;10.45;9.15;;;1.60;99.90;;;;;;4811384;26;20549;-82
2023/01/22 03:22:36;;;;;;;;;;;;;;;;;;;;;
2023/01/22 03:26:09;;;;;;;8.60;7.78;;;1.40;99.90;;;;;;5038529;28;20413;-81
2023/01/22 03:28:39;;;;;;;9.15;8.20;;;1.60;99.90;;;;;;5002078;28;20406;-81
2023/01/22 03:31:23;;;;;;;9.30;8.20;;;1.50;99.90;;;;;;5049112;28;20482;-82
2023/01/22 03:34:53;;;;;;;9.48;8.02;;;1.50;99.90;;;;;;5047615;28;20388;-82
2023/01/22 04:44:30;;;;;;;10.95;9.75;;;1.70;99.90;;;;;;4863781;29;20850;-80
2023/01/22 04:47:24;;;;;;;;;;;;;;;;;;;;;
2023/01/22 04:56:31;;;;;;;14.25;11.73;;;1.60;99.90;;;;;;5013878;28;20398;-82
2023/01/22 04:59:05;;;;;;;11.97;10.00;;;1.60;99.90;;;;;;5070917;28;20392;-82
2023/01/22 05:01:44;;;;;;;;;;;;;;;;;;;;;
2023/01/22 05:04:20;;;;;;;;;;;;;;;;;;;;;
2023/01/22 05:07:28;;;;;;;;;;;;;;;;;;;;;
2023/01/22 05:10:13;;;;;;;;;;;;;;;;;;;;;
2023/01/22 05:13:23;;;;;;;10.23;8.52;;;1.70;99.90;;;;;;5090284;28;20754;-82
2023/01/22 05:20:01;;;;;;;9.68;8.35;;;1.70;99.90;;;;;;4977834;28;20395;-82
2023/01/22 05:22:34;;;;;;;10.23;8.95;;;1.70;99.90;;;;;;5032485;28;20561;-82
2023/01/22 05:25:36;;;;;;;;;;;;;;;;;;;;;
2023/01/22 05:28:19;;;;;;;;;;;;;;;;;;;;;
2023/01/22 05:30:50;;;;;;;10.63;8.63;;;1.80;99.90;;;;;;5090118;28;20391;-82
2023/01/22 05:33:28;;;;;;;9.43;7.95;;;1.80;99.90;;;;;;5072203;28;20403;-80
2023/01/22 05:36:25;;;;;;;;;;;;;;;;;;;;;
2023/01/22 05:39:09;;;;;;;;;;;;;;;;;;;;;
2023/01/22 05:41:48;;;;;;;9.80;8.68;;;1.90;99.90;;;;;;5088066;28;20419;-81
2023/01/22 05:44:14;;;;;;;9.68;8.45;;;1.90;99.90;;;;;;5090720;28;20364;-81
2023/01/22 05:46:47;;;;;;;11.03;9.10;;;1.80;99.90;;;;;;5090297;28;20865;-81
2023/01/22 05:49:17;;;;;;;9.80;8.37;;;1.80;99.90;;;;;;5070924;28;20415;-80
2023/01/22 05:56:06;;;;;;;;;;;;;;;;;;;;;
2023/01/22 06:02:34;;;;;;;;;;;;;;;;;;;;;
2023/01/22 06:05:44;;;;;;;8.35;7.45;;;2.00;99.90;;;;;;5085425;28;20372;-81
2023/01/22 06:08:24;;;;;;;;;;;;;;;;;;;;;
2023/01/22 06:11:14;;;;;;;7.90;7.20;;;1.90;99.90;;;;;;5093190;28;20753;-80
2023/01/22 06:14:10;;;;;;;8.73;7.47;;;1.90;99.90;;;;;;5094025;28;20424;-82
2023/01/22 06:16:49;;;;;;;8.75;7.85;;;1.90;99.90;;;;;;5095046;28;20414;-81
2023/01/22 06:19:20;;;;;;;8.40;7.50;;;2.00;99.90;;;;;;5074899;28;20408;-80
2023/01/22 06:22:17;;;;;;;;;;;;;;;;;;;;;
2023/01/22 06:25:13;;;;;;;8.40;7.60;;;1.80;99.90;;;;;;5094484;28;20762;-82
2023/01/22 06:31:24;;;;;;;;;;;;;;;;;;;;;
2023/01/22 07:35:22;;;;;;;;;;;;;;;;;;;;;
2023/01/22 07:38:01;;;;;;;11.73;10.63;;;2.00;99.90;;;;;;6217505;23;20463;-81
2023/01/22 07:40:27;;;;;;;13.05;11.65;;;1.80;99.90;;;;;;6218206;23;20341;-81
2023/01/22 07:42:56;;;;;;;10.77;9.77;;;1.80;99.90;;;;;;6216911;23;20880;-81
2023/01/22 07:45:25;;;;;;;11.80;10.63;;;1.90;99.90;;;;;;6217132;23;20357;-82
2023/01/22 07:48:09;;;;;;;11.50;10.40;;;2.10;99.90;;;;;;6219171;23;20384;-81
2023/01/22 07:50:35;;;;;;;10.77;9.77;;;2.00;99.90;;;;;;6219064;23;20364;-81
2023/01/22 07:53:11;;;;;;;11.60;10.50;;;2.00;99.90;;;;;;6217108;23;20368;-81
2023/01/22 07:55:37;;;;;;;11.57;10.57;;;2.00;99.90;;;;;;6214923;23;20431;-81
2023/01/22 07:58:06;;;;;;;11.25;10.15;;;2.00;99.90;;;;;;6217799;23;20380;-82
2023/01/22 08:00:35;;;;;;;12.88;11.55;;;2.00;99.90;;;;;;6218012;23;20361;-80
2023/01/22 08:03:05;;;;;;;14.48;12.88;;;2.00;99.90;;;;;;6220691;23;20345;-81
2023/01/22 08:05:30;;;;;;;13.00;11.70;;;2.00;99.90;;;;;;6219157;23;20653;-81
2023/01/22 08:07:58;;;;;;;14.23;12.82;;;2.00;99.90;;;;;;6220602;23;20417;-80
2023/01/22 08:10:24;;;;;;;12.85;11.55;;;2.10;99.90;;;;;;6219558;23;20359;-81
2023/01/22 08:12:50;;;;;;;12.23;11.13;;;2.10;99.90;;;;;;6218049;23;20613;-82
2023/01/22 08:22:16;;;;;;;14.05;12.57;;;2.10;99.90;;;;;;6196356;23;20338;-82
2023/01/22 08:35:03;;;;;;;;;;;;;;;;;;;;;
2023/01/22 08:37:17;;;;;;;15.30;13.88;;;2.40;99.90;;;;;;6198861;23;20400;-79
2023/01/22 08:39:46;;;;;;;15.68;14.13;;;2.40;99.90;;;;;;6209168;23;20350;-82
2023/01/22 08:42:14;;;;;;;14.43;13.13;;;2.50;99.90;;;;;;6207304;23;20973;-80
2023/01/22 08:44:41;;;;;;;14.55;13.15;;;2.30;99.90;;;;;;6210610;23;20361;-81
2023/01/22 08:47:09;;;;;;;15.05;13.55;;;2.40;99.90;;;;;;6209345;23;20416;-81
2023/01/22 08:49:35;;;;;;;16.80;15.20;;;2.40;99.90;;;;;;6209332;23;20342;-80
2023/01/22 08:52:00;;;;;;;14.45;13.05;;;2.50;99.90;;;;;;6208208;23;20445;-82
2023/01/22 08:54:26;;;;;;;16.58;14.95;;;2.40;99.90;;;;;;6212020;23;20350;-81
2023/01/22 08:56:52;;;;;;;15.85;14.20;;;2.30;99.90;;;;;;6208931;23;20825;-82
2023/01/22 08:59:21;;;;;;;16.85;15.15;;;3.20;99.90;;;;;;6211759;23;20362;-81
2023/01/22 09:01:49;;;;;;;18.27;16.57;;;2.40;99.90;;;;;;6212250;23;20829;-80
2023/01/22 09:04:18;;;;;;;17.08;15.40;;;2.50;99.90;;;;;;6210766;23;20350;-82
2023/01/22 09:06:44;;;;;;;16.92;15.23;;;2.50;99.90;;;;;;6210650;23;20404;-77
2023/01/22 09:09:11;;;;;;;16.42;14.82;;;2.50;99.90;;;;;;6210847;23;20343;-81
2023/01/22 09:11:37;;;;;;;15.27;13.70;;;2.50;99.90;;;;;;6211128;23;20385;-81
2023/01/22 09:14:03;;;;;;;15.43;13.93;;;2.50;99.90;;;;;;6212082;23;20345;-82
2023/01/22 09:16:30;;;;;;;17.70;16.00;;;2.50;99.90;;;;;;6210936;23;20683;-81
2023/01/22 09:18:56;;;;;;;14.93;13.43;;;2.50;99.90;;;;;;6207344;23;20374;-82
2023/01/22 09:21:22;;;;;;;13.82;12.45;;;2.70;99.90;;;;;;6210565;23;20373;-80
2023/01/22 09:23:48;;;;;;;14.37;12.97;;;2.60;99.90;;;;;;6211189;23;20357;-80
2023/01/22 09:26:14;;;;;;;14.77;13.23;;;2.50;99.90;;;;;;6210699;23;20349;-81
2023/01/22 09:28:39;;;;;;;14.50;13.10;;;2.50;99.90;;;;;;6207649;23;20354;-81
2023/01/22 09:31:05;;;;;;;15.32;13.82;;;2.40;99.90;;;;;;6207581;23;20430;-81
2023/01/22 09:33:31;;;;;;;15.52;13.40;;;2.50;99.90;;;;;;6211481;23;20357;-82
2023/01/22 09:36:07;;;;;;;14.93;13.43;;;2.60;99.90;;;;;;6208744;23;20390;-80
2023/01/22 09:38:33;;;;;;;15.67;14.10;;;2.50;99.90;;;;;;6209819;23;20425;-82
2023/01/22 09:41:02;;;;;;;16.48;14.85;;;2.60;99.90;;;;;;6209564;23;20372;-81
2023/01/22 09:43:45;;;;;;;15.82;14.23;;;2.50;99.90;;;;;;6211106;23;20377;-82
2023/01/22 09:46:27;;;;;;;17.73;15.43;;;2.50;99.90;;;;;;6210398;23;20408;-81
2023/01/22 09:48:59;;;;;;;16.38;14.68;;;2.50;99.90;;;;;;6209649;23;20346;-80
2023/01/22 09:51:25;;;;;;;17.75;15.93;;;2.50;99.90;;;;;;6209900;23;20468;-80
2023/01/22 09:53:59;;;;;;;17.42;15.55;;;2.50;99.90;;;;;;6209516;23;20354;-80
2023/01/22 09:56:49;;;;;;;17.90;16.00;;;2.40;99.90;;;;;;6210594;23;20350;-80
2023/01/22 09:59:38;;;;;;;17.55;15.55;;;2.50;99.90;;;;;;6210381;23;20440;-81
2023/01/22 10:02:25;;;;;;;17.63;15.80;;;2.50;99.90;;;;;;6208818;23;20397;-79
2023/01/22 10:04:59;;;;;;;16.95;15.25;;;2.60;99.90;;;;;;6210950;23;20342;-79
2023/01/22 10:07:35;;;;;;;16.50;14.90;;;2.60;99.90;;;;;;6208550;23;20353;-81
2023/01/22 10:10:14;;;;;;;14.95;13.50;;;2.60;99.90;;;;;;6210511;23;20351;-78
2023/01/22 10:12:40;;;;;;;15.63;13.93;;;2.70;99.90;;;;;;6209212;23;20801;-80
2023/01/22 10:15:14;;;;;;;16.75;15.05;;;2.50;99.90;;;;;;6211213;23;20366;-81
2023/01/22 10:17:40;;;;;;;15.55;13.95;;;2.60;99.90;;;;;;6206719;23;20720;-79
2023/01/22 10:20:09;;;;;;;13.95;12.45;;;2.70;99.90;;;;;;6209410;23;20734;-79
2023/01/22 10:22:35;;;;;;;14.77;13.20;;;2.70;99.90;;;;;;6210707;23;20346;-79
2023/01/22 10:25:01;;;;;;;14.70;13.27;;;2.70;99.90;;;;;;6208416;23;20408;-80
2023/01/22 10:27:38;;;;;;;14.80;13.30;;;2.70;99.90;;;;;;6210143;23;20338;-79
2023/01/22 10:30:24;;;;;;;16.00;14.45;;;2.70;99.90;;;;;;6210697;23;20350;-81
2023/01/22 10:33:05;;;;;;;14.55;13.15;;;2.80;99.90;;;;;;6210760;23;20353;-82
2023/01/22 10:35:40;;;;;;;15.83;14.23;;;2.70;99.90;;;;;;6210651;23;20576;-79
2023/01/22 10:38:24;;;;;;;15.65;14.02;;;2.70;99.90;;;;;;6208451;23;20374;-81
2023/01/22 10:41:02;;;;;;;15.27;13.77;;;2.70;99.90;;;;;;6210053;23;20338;-81
2023/01/22 10:43:36;;;;;;;16.02;14.45;;;2.80;99.90;;;;;;6208953;23;20346;-82
2023/01/22 10:46:11;;;;;;;15.13;13.63;;;2.70;99.90;;;;;;6211064;23;20408;-80
2023/01/22 10:48:37;;;;;;;15.57;14.02;;;2.80;99.90;;;;;;6211859;23;20350;-80
2023/01/22 10:51:20;;;;;;;14.95;13.38;;;2.80;99.90;;;;;;6213298;23;20350;-80
2023/01/22 10:53:47;;;;;;;15.55;13.95;;;2.70;99.90;;;;;;6209996;23;20377;-81
2023/01/22 10:56:25;;;;;;;14.77;13.27;;;2.60;99.90;;;;;;6210617;23;20345;-80
2023/01/22 10:59:02;;;;;;;15.07;13.57;;;2.60;99.90;;;;;;6210290;23;20396;-81
2023/01/22 11:01:31;;;;;;;15.57;13.98;;;2.70;99.90;;;;;;6210571;23;20342;-80
2023/01/22 11:03:56;;;;;;;13.98;12.57;;;2.80;99.90;;;;;;6209104;23;20950;-81
2023/01/22 11:06:32;;;;;;;14.13;12.83;;;2.80;99.90;;;;;;6205589;23;20354;-79
2023/01/22 11:09:06;;;;;;;15.70;14.18;;;3.00;99.90;;;;;;6209378;23;20345;-81
2023/01/22 11:11:40;;;;;;;16.20;14.50;;;2.90;99.90;;;;;;6209653;23;20403;-81
2023/01/22 11:14:24;;;;;;;17.20;15.40;;;2.90;99.90;;;;;;6210180;23;20380;-82
2023/01/22 11:16:52;;;;;;;15.30;13.80;;;2.70;99.90;;;;;;6209910;23;20744;-79
2023/01/22 11:19:22;;;;;;;15.55;13.95;;;2.60;99.90;;;;;;6209349;23;20871;-81
2023/01/22 11:21:51;;;;;;;15.38;13.88;;;2.70;99.90;;;;;;6209075;23;20408;-81
2023/01/22 11:24:21;;;;;;;15.15;13.60;;;2.80;99.90;;;;;;6210075;23;20804;-79
2023/01/22 11:27:30;;;;;;;14.38;12.98;;;2.70;99.90;;;;;;6209641;23;20348;-78
2023/01/22 11:30:09;;;;;;;13.80;12.40;;;2.80;99.90;;;;;;6210678;23;20341;-79
2023/01/22 11:32:42;;;;;;;15.25;13.65;;;2.90;99.90;;;;;;6210046;23;20392;-79
2023/01/22 11:35:34;;;;;;;15.07;13.55;;;2.80;99.90;;;;;;6209031;23;20394;-81
2023/01/22 11:38:08;;;;;;;13.57;12.23;;;2.90;99.90;;;;;;6191375;23;20893;-81
2023/01/22 11:41:09;;;;;;;14.70;13.17;;;3.00;99.90;;;;;;6207754;23;20350;-81
2023/01/22 11:43:54;;;;;;;14.18;12.77;;;2.90;99.90;;;;;;6170445;23;20820;-80
2023/01/22 11:46:38;;;;;;;14.00;12.60;;;2.80;99.90;;;;;;6208301;23;20698;-81
2023/01/22 11:49:38;;;;;;;14.40;13.00;;;2.90;99.90;;;;;;6209637;23;20832;-81
2023/01/22 11:52:29;;;;;;;13.50;12.10;;;3.00;99.90;;;;;;6209207;23;20369;-79
2023/01/22 11:55:20;;;;;;;14.33;12.93;;;3.00;99.90;;;;;;6204731;23;20423;-79
2023/01/22 11:58:05;;;;;;;13.38;12.07;;;3.00;99.90;;;;;;6209484;23;20401;-80
2023/01/22 12:00:48;;;;;;;12.20;11.05;;;3.20;99.90;;;;;;6206169;23;20345;-80
2023/01/22 12:03:27;;;;;;;13.05;11.75;;;3.20;99.90;;;;;;6210100;23;20428;-79
2023/01/22 12:06:17;;;;;;;12.97;11.77;;;3.20;99.90;;;;;;6208021;23;20461;-80
2023/01/22 12:08:56;;;;;;;13.38;12.07;;;3.10;99.90;;;;;;6211180;23;20346;-79
2023/01/22 12:11:42;;;;;;;13.03;11.70;;;3.00;99.90;;;;;;6211088;23;20342;-80
2023/01/22 12:14:14;;;;;;;13.23;11.93;;;2.90;99.90;;;;;;6210816;23;20540;-80
2023/01/22 12:17:10;;;;;;;14.32;12.90;;;3.10;99.90;;;;;;6209957;23;20354;-79
2023/01/22 12:19:54;;;;;;;13.68;12.30;;;3.00;99.90;;;;;;6210584;23;20378;-80
2023/01/22 12:22:38;;;;;;;14.68;13.15;;;3.20;99.90;;;;;;6211460;23;20356;-80
2023/01/22 12:25:18;;;;;;;13.80;12.48;;;3.20;99.90;;;;;;6211591;23;20350;-80
2023/01/22 12:28:00;;;;;;;14.23;12.82;;;3.20;99.90;;;;;;6208718;23;20708;-81
2023/01/22 12:30:48;;;;;;;15.20;13.70;;;3.10;99.90;;;;;;6209785;23;20372;-81
2023/01/22 12:33:19;;;;;;;14.35;12.95;;;2.90;99.90;;;;;;6209892;23;20437;-80
2023/01/22 12:35:50;;;;;;;16.33;14.63;;;2.90;99.90;;;;;;6207256;23;20370;-81
2023/01/22 12:39:07;;;;;;;16.90;15.20;;;2.80;99.90;;;;;;6209849;23;20453;-80
2023/01/22 12:41:43;;;;;;;16.38;14.68;;;2.80;99.90;;;;;;6211248;23;20927;-83
2023/01/22 12:44:41;;;;;;;16.30;14.70;;;2.80;99.90;;;;;;6211773;23;20340;-79
2023/01/22 12:47:45;;;;;;;16.02;14.43;;;2.80;99.90;;;;;;6126626;23;20836;-81
2023/01/22 12:50:22;;;;;;;16.10;14.55;;;2.80;99.90;;;;;;6205498;23;20420;-80
2023/01/22 12:53:19;;;;;;;16.15;14.55;;;2.70;99.90;;;;;;6209060;23;20346;-80
2023/01/22 12:55:55;;;;;;;17.23;15.52;;;2.70;99.90;;;;;;6205654;23;20713;-79
2023/01/22 12:58:27;;;;;;;16.77;15.07;;;2.70;99.90;;;;;;6207898;23;20436;-81
2023/01/22 13:01:06;;;;;;;16.88;15.13;;;2.80;99.90;;;;;;6208874;23;20522;-79
2023/01/22 13:03:33;;;;;;;16.47;14.87;;;2.90;99.90;;;;;;6207621;23;20354;-81
2023/01/22 13:06:00;;;;;;;17.45;15.73;;;2.80;99.90;;;;;;6209653;23;20800;-79
2023/01/22 13:08:56;;;;;;;17.00;15.32;;;2.90;99.90;;;;;;6210682;23;20342;-80
2023/01/22 13:11:27;;;;;;;17.13;15.32;;;2.90;99.90;;;;;;6187093;23;20357;-80
2023/01/22 13:13:57;;;;;;;16.83;15.13;;;3.00;99.90;;;;;;6208877;23;20874;-81
2023/01/22 13:16:33;;;;;;;18.40;16.60;;;3.00;99.90;;;;;;6210479;23;20344;-79
2023/01/22 13:19:19;;;;;;;18.75;16.77;;;2.90;99.90;;;;;;6210269;23;20377;-80
2023/01/22 13:21:46;;;;;;;18.30;16.38;;;2.80;99.90;;;;;;6212258;23;20354;-81
2023/01/22 13:24:15;;;;;;;18.83;17.02;;;2.80;99.90;;;;;;6211085;23;20358;-79
2023/01/22 13:26:50;;;;;;;19.05;17.15;;;2.80;99.90;;;;;;6209063;23;20366;-81
2023/01/22 13:29:18;;;;;;;19.15;17.23;;;2.80;99.90;;;;;;6208861;23;20802;-80
2023/01/22 13:31:55;;;;;;;18.63;16.75;;;2.80;99.90;;;;;;6210692;23;20354;-80
2023/01/22 13:34:25;;;;;;;18.35;16.33;;;2.80;99.90;;;;;;6212490;23;20357;-79
2023/01/22 13:36:54;;;;;;;18.23;16.47;;;2.90;99.90;;;;;;6207704;23;20413;-79
2023/01/22 13:39:24;;;;;;;19.00;16.90;;;2.70;99.90;;;;;;6206719;23;20370;-80
2023/01/22 13:41:54;;;;;;;19.00;16.42;;;2.70;99.90;;;;;;6206513;23;20788;-80
2023/01/22 13:44:32;;;;;;;19.25;17.15;;;2.80;99.90;;;;;;6208165;23;20361;-80
2023/01/22 13:46:59;;;;;;;21.45;17.40;;;2.80;99.90;;;;;;6204505;23;20431;-80
2023/01/22 13:49:29;;;;;;;20.17;17.38;;;2.70;99.90;;;;;;6210925;23;20456;-78
2023/01/22 13:52:03;;;;;;;19.70;17.60;;;2.80;99.90;;;;;;6208591;23;20362;-80
2023/01/22 13:54:46;;;;;;;19.63;17.42;;;2.70;99.90;;;;;;6210271;23;20417;-80
2023/01/22 13:57:14;;;;;;;19.95;17.77;;;2.80;99.90;;;;;;6209001;23;20346;-79
2023/01/22 13:59:50;;;;;;;21.70;19.30;;;2.80;99.90;;;;;;6206088;23;20378;-80
2023/01/22 14:02:29;;;;;;;22.50;19.00;;;2.80;99.90;;;;;;6209957;23;20400;-80
2023/01/22 14:04:56;;;;;;;22.90;19.60;;;2.80;99.90;;;;;;6208314;23;20429;-79
2023/01/22 14:07:33;;;;;;;21.35;19.05;;;2.70;99.90;;;;;;6206657;23;20349;-80
2023/01/22 14:10:18;;;;;;;22.40;19.43;;;2.80;99.90;;;;;;6209923;23;20346;-81
2023/01/22 14:12:44;;;;;;;21.85;18.92;;;2.70;99.90;;;;;;6208674;23;20360;-80
2023/01/22 14:15:21;;;;;;;23.47;19.97;;;2.70;99.90;;;;;;6208802;23;20485;-79
2023/01/22 14:17:47;;;;;;;22.30;18.98;;;2.70;99.90;;;;;;6209028;23;20366;-80
2023/01/22 14:20:13;;;;;;;25.13;21.00;;;2.80;99.90;;;;;;6209067;23;20618;-80
2023/01/22 14:22:49;;;;;;;26.10;20.77;;;2.70;99.90;;;;;;6208105;23;20350;-79
2023/01/22 14:25:20;;;;;;;26.05;21.80;;;2.70;99.90;;;;;;6209407;23;20346;-81
2023/01/22 14:27:52;;;;;;;26.42;21.95;;;2.60;99.90;;;;;;6208181;23;20350;-81
2023/01/22 14:30:23;;;;;;;27.42;23.48;;;2.60;99.90;;;;;;6209256;23;20350;-79
2023/01/22 14:32:49;;;;;;;27.52;22.35;;;2.60;99.90;;;;;;6209357;23;20372;-80
2023/01/22 14:35:21;;;;;;;29.42;24.48;;;2.60;99.90;;;;;;6210917;23;20782;-81
2023/01/22 14:37:47;;;;;;;26.95;22.23;;;2.60;99.90;;;;;;6210888;23;20374;-82
2023/01/22 14:40:16;;;;;;;27.48;22.73;;;2.70;99.90;;;;;;6206902;23;20403;-79
2023/01/22 14:42:45;;;;;;;28.73;23.60;;;2.80;99.90;;;;;;6206808;23;20746;-79
2023/01/22 14:45:15;;;;;;;30.63;24.33;;;2.70;99.90;;;;;;6208475;23;20817;-81
2023/01/22 14:47:41;;;;;;;28.70;23.73;;;2.50;99.90;;;;;;6210125;23;20346;-81
2023/01/22 14:50:15;;;;;;;28.40;23.73;;;2.60;99.90;;;;;;6207486;23;20697;-82
2023/01/22 14:52:43;;;;;;;29.40;22.73;;;2.60;99.90;;;;;;6208456;23;20350;-81
2023/01/22 14:55:11;;;;;;;30.15;24.20;;;2.60;99.90;;;;;;6207351;23;20362;-79
2023/01/22 14:57:39;;;;;;;30.38;24.48;;;2.50;99.90;;;;;;6209346;23;20718;-80
2023/01/22 15:00:06;;;;;;;31.10;24.73;;;2.60;99.90;;;;;;6207717;23;20350;-80
2023/01/22 15:02:34;;;;;;;29.15;24.08;;;2.60;99.90;;;;;;6210562;23;20400;-80
2023/01/22 15:05:01;;;;;;;30.30;24.25;;;2.60;99.90;;;;;;6210120;23;20352;-79
2023/01/22 15:07:36;;;;;;;35.22;25.08;;;2.70;99.90;;;;;;6207748;23;20369;-80
2023/01/22 15:10:15;;;;;;;29.67;23.63;;;2.70;99.90;;;;;;6208272;23;20415;-81
2023/01/22 15:12:46;;;;;;;30.52;23.90;;;2.70;99.90;;;;;;6210822;23;20350;-80
2023/01/22 15:15:17;;;;;;;29.88;23.58;;;2.70;99.90;;;;;;6207872;23;20361;-81
2023/01/22 15:17:43;;;;;;;30.88;24.85;;;2.80;99.90;;;;;;6207689;23;20409;-79
2023/01/22 15:20:15;;;;;;;30.00;24.00;;;2.70;99.90;;;;;;6208941;23;20345;-79
2023/01/22 15:22:41;;;;;;;31.67;24.63;;;2.70;99.90;;;;;;6209605;23;20756;-79
2023/01/22 15:25:07;;;;;;;33.78;26.58;;;2.80;99.90;;;;;;6208433;23;20372;-79
2023/01/22 15:27:33;;;;;;;35.13;25.80;;;2.70;99.90;;;;;;6208048;23;20358;-79
2023/01/22 15:29:59;;;;;;;35.47;27.53;;;2.60;99.90;;;;;;6209316;23;20353;-78
2023/01/22 15:32:25;;;;;;;34.37;26.10;;;2.50;99.90;;;;;;6207506;23;20350;-79
2023/01/22 15:34:50;;;;;;;33.13;26.07;;;2.70;99.90;;;;;;6206232;23;20424;-80
2023/01/22 15:37:16;;;;;;;30.07;24.27;;;2.80;99.90;;;;;;6207582;23;20448;-80
2023/01/22 15:39:42;;;;;;;30.73;23.20;;;2.80;99.90;;;;;;6210728;23;20903;-79
2023/01/22 15:42:09;;;;;;;30.88;24.15;;;2.80;99.90;;;;;;6211698;23;20785;-80
2023/01/22 15:44:36;;;;;;;30.60;22.95;;;2.70;99.90;;;;;;6212687;23;20834;-79
2023/01/22 15:47:07;;;;;;;28.42;22.92;;;2.80;99.90;;;;;;6210300;23;20353;-80
2023/01/22 15:49:33;;;;;;;26.90;22.52;;;2.70;99.90;;;;;;6208991;23;20366;-77
2023/01/22 15:51:59;;;;;;;27.90;23.20;;;2.80;99.90;;;;;;6208792;23;20342;-79
2023/01/22 15:54:27;;;;;;;28.58;22.92;;;2.80;99.90;;;;;;6205183;23;20358;-79
2023/01/22 15:56:52;;;;;;;28.45;22.73;;;2.80;99.90;;;;;;6204455;23;20859;-79
2023/01/22 15:59:18;;;;;;;29.75;23.42;;;2.70;99.90;;;;;;6207572;23;20403;-80
2023/01/22 16:01:44;;;;;;;28.27;21.77;;;2.70;99.90;;;;;;6204212;23;20578;-79
2023/01/22 16:04:10;;;;;;;26.95;21.20;;;2.80;99.90;;;;;;6210765;23;20349;-79
2023/01/22 16:06:38;;;;;;;27.52;21.75;;;2.70;99.90;;;;;;6210277;23;20665;-79
2023/01/22 16:09:07;;;;;;;25.83;20.20;;;2.70;99.90;;;;;;6213868;23;20689;-80
2023/01/22 16:11:36;;;;;;;25.53;20.83;;;2.70;99.90;;;;;;6208644;23;20441;-80
2023/01/22 16:14:02;;;;;;;25.38;20.38;;;2.60;99.90;;;;;;6215171;23;20402;-79
2023/01/22 16:16:31;;;;;;;23.85;19.60;;;2.70;99.90;;;;;;6228133;23;20373;-79
2023/01/22 16:19:01;;;;;;;26.05;20.48;;;2.60;99.90;;;;;;6229019;23;20385;-78
2023/01/22 16:21:27;;;;;;;26.05;21.30;;;2.50;99.90;;;;;;6213325;23;20730;-78
2023/01/22 16:23:55;;;;;;;23.15;19.95;;;2.50;99.90;;;;;;6209538;23;20361;-80
2023/01/22 16:26:30;;;;;;;25.20;20.63;;;2.60;99.90;;;;;;6211134;23;20453;-78
2023/01/22 16:28:58;;;;;;;25.27;20.85;;;2.60;99.90;;;;;;6205321;23;20361;-79
2023/01/22 16:31:29;;;;;;;23.23;19.27;;;2.60;99.90;;;;;;6209091;23;21015;-80
2023/01/22 16:33:58;;;;;;;24.33;20.55;;;2.80;99.90;;;;;;6204665;23;20357;-78
2023/01/22 16:36:31;;;;;;;23.30;19.60;;;2.70;99.90;;;;;;6204272;23;20362;-78
2023/01/22 16:38:57;;;;;;;22.55;19.00;;;2.60;99.90;;;;;;6203401;23;20374;-80
2023/01/22 16:41:39;;;;;;;24.23;19.75;;;2.70;99.90;;;;;;6209841;23;21160;-80
2023/01/22 16:44:06;;;;;;;24.00;21.02;;;2.80;99.90;;;;;;6210521;23;20350;-80
2023/01/22 16:46:34;;;;;;;24.83;21.60;;;2.70;99.90;;;;;;6209641;23;20820;-80
2023/01/22 16:49:09;;;;;;;24.73;21.20;;;2.60;99.90;;;;;;6210435;23;20345;-80
2023/01/22 16:51:38;;;;;;;21.90;19.23;;;2.70;99.90;;;;;;6209701;23;20394;-80
2023/01/22 16:54:06;;;;;;;24.15;19.80;;;2.70;99.90;;;;;;6209134;23;20353;-80
2023/01/22 16:56:32;;;;;;;21.83;18.75;;;2.80;99.90;;;;;;6211372;23;20788;-78
2023/01/22 16:59:00;;;;;;;23.30;19.95;;;2.90;99.90;;;;;;6208707;23;20396;-80
2023/01/22 17:01:28;;;;;;;22.33;19.55;;;2.80;99.90;;;;;;6204578;23;20362;-79
2023/01/22 17:03:54;;;;;;;24.77;20.80;;;2.80;99.90;;;;;;6205595;23;20661;-81
2023/01/22 17:06:23;;;;;;;23.30;19.98;;;2.80;99.90;;;;;;6206444;23;20377;-79
2023/01/22 17:08:50;;;;;;;26.15;21.38;;;2.80;99.90;;;;;;6209059;23;20345;-80